sensor_id;sensor_type;location;lat;lon;timestamp;pressure;altitude;pressure_sealevel;temperature;humidity
18167;BME280;9208;42.688;23.404;2022-07-03T00:00:30;95899.75;;;22.95;100.00
18167;BME280;9208;42.688;23.404;2022-07-03T00:02:55;95894.50;;;22.91;100.00
18167;BME280;9208;42.688;23.404;2022-07-03T00:05:21;95893.00;;;22.90;100.00
18167;BME280;9208;42.688;23.404;2022-07-03T00:07:46;95897.69;;;22.95;100.00
18167;BME280;9208;42.688;23.404;2022-07-03T00:10:11;95904.22;;;22.98;100.00
18167;BME280;9208;42.688;23.404;2022-07-03T00:12:37;95898.09;;;22.99;100.00
18167;BME280;9208;42.688;23.404;2022-07-03T00:15:03;95907.56;;;22.96;100.00
18167;BME280;9208;42.688;23.404;2022-07-03T00:17:29;95898.41;;;22.88;100.00
18167;BME280;9208;42.688;23.404;2022-07-03T00:19:55;95893.53;;;22.89;100.00
18167;BME280;9208;42.688;23.404;2022-07-03T00:22:21;95895.59;;;22.88;100.00
18167;BME280;9208;42.688;23.404;2022-07-03T00:24:53;95896.00;;;22.92;100.00
18167;BME280;9208;42.688;23.404;2022-07-03T00:27:24;95895.25;;;22.92;100.00
18167;BME280;9208;42.688;23.404;2022-07-03T00:29:52;95879.56;;;22.89;100.00
18167;BME280;9208;42.688;23.404;2022-07-03T00:32:22;95885.19;;;22.96;100.00
18167;BME280;9208;42.688;23.404;2022-07-03T00:34:50;95884.66;;;22.98;100.00
18167;BME280;9208;42.688;23.404;2022-07-03T00:37:16;95883.13;;;22.89;100.00
18167;BME280;9208;42.688;23.404;2022-07-03T00:39:43;95873.25;;;22.88;100.00
18167;BME280;9208;42.688;23.404;2022-07-03T00:42:10;95881.38;;;22.79;100.00
18167;BME280;9208;42.688;23.404;2022-07-03T00:44:54;95872.22;;;22.78;100.00
18167;BME280;9208;42.688;23.404;2022-07-03T00:47:23;95875.59;;;22.77;100.00
18167;BME280;9208;42.688;23.404;2022-07-03T00:49:50;95879.28;;;22.72;100.00
18167;BME280;9208;42.688;23.404;2022-07-03T00:52:18;95877.22;;;22.72;100.00
18167;BME280;9208;42.688;23.404;2022-07-03T00:57:20;95870.47;;;22.68;100.00
18167;BME280;9208;42.688;23.404;2022-07-03T00:59:46;95864.22;;;22.54;100.00
18167;BME280;9208;42.688;23.404;2022-07-03T01:02:53;95869.63;;;22.52;100.00
18167;BME280;9208;42.688;23.404;2022-07-03T01:10:57;95860.16;;;22.42;100.00
18167;BME280;9208;42.688;23.404;2022-07-03T01:19:04;95857.53;;;22.37;100.00
18167;BME280;9208;42.688;23.404;2022-07-03T01:24:28;95854.53;;;22.35;100.00
18167;BME280;9208;42.688;23.404;2022-07-03T01:27:00;95848.94;;;22.35;100.00
18167;BME280;9208;42.688;23.404;2022-07-03T01:29:45;95849.81;;;22.30;100.00
18167;BME280;9208;42.688;23.404;2022-07-03T01:32:14;95860.66;;;22.33;100.00
18167;BME280;9208;42.688;23.404;2022-07-03T01:34:43;95854.88;;;22.31;100.00
18167;BME280;9208;42.688;23.404;2022-07-03T01:37:10;95852.06;;;22.31;100.00
18167;BME280;9208;42.688;23.404;2022-07-03T01:39:41;95853.38;;;22.30;100.00
18167;BME280;9208;42.688;23.404;2022-07-03T01:42:11;95849.28;;;22.31;100.00
18167;BME280;9208;42.688;23.404;2022-07-03T01:44:39;95847.56;;;22.28;100.00
18167;BME280;9208;42.688;23.404;2022-07-03T01:47:05;95851.00;;;22.34;100.00
18167;BME280;9208;42.688;23.404;2022-07-03T01:49:32;95851.00;;;22.34;100.00
18167;BME280;9208;42.688;23.404;2022-07-03T01:52:01;95853.25;;;22.36;100.00
18167;BME280;9208;42.688;23.404;2022-07-03T01:54:28;95850.94;;;22.47;100.00
18167;BME280;9208;42.688;23.404;2022-07-03T01:56:56;95853.44;;;22.38;100.00
18167;BME280;9208;42.688;23.404;2022-07-03T01:59:23;95850.72;;;22.45;100.00
18167;BME280;9208;42.688;23.404;2022-07-03T02:01:59;95847.78;;;22.30;100.00
18167;BME280;9208;42.688;23.404;2022-07-03T02:04:48;95856.09;;;22.23;100.00
18167;BME280;9208;42.688;23.404;2022-07-03T02:07:25;95851.66;;;22.27;100.00
18167;BME280;9208;42.688;23.404;2022-07-03T02:10:08;95849.94;;;22.24;100.00
18167;BME280;9208;42.688;23.404;2022-07-03T02:12:40;95862.47;;;22.10;100.00
18167;BME280;9208;42.688;23.404;2022-07-03T02:15:11;95861.13;;;22.04;100.00
18167;BME280;9208;42.688;23.404;2022-07-03T02:17:43;95850.72;;;22.04;100.00
18167;BME280;9208;42.688;23.404;2022-07-03T02:20:11;95852.75;;;22.04;100.00
18167;BME280;9208;42.688;23.404;2022-07-03T02:22:51;95855.00;;;22.05;100.00
18167;BME280;9208;42.688;23.404;2022-07-03T02:25:34;95854.25;;;22.05;100.00
18167;BME280;9208;42.688;23.404;2022-07-03T02:28:06;95856.91;;;22.10;100.00
18167;BME280;9208;42.688;23.404;2022-07-03T02:30:42;95861.59;;;22.15;100.00
18167;BME280;9208;42.688;23.404;2022-07-03T02:33:11;95859.56;;;22.16;100.00
18167;BME280;9208;42.688;23.404;2022-07-03T02:35:37;95862.91;;;22.14;100.00
18167;BME280;9208;42.688;23.404;2022-07-03T02:38:17;95868.81;;;22.11;100.00
18167;BME280;9208;42.688;23.404;2022-07-03T02:41:15;95869.25;;;22.15;100.00
18167;BME280;9208;42.688;23.404;2022-07-03T02:46:38;95868.41;;;22.07;100.00
18167;BME280;9208;42.688;23.404;2022-07-03T02:49:41;95862.63;;;21.84;100.00
18167;BME280;9208;42.688;23.404;2022-07-03T02:58:01;95883.00;;;21.79;100.00
18167;BME280;9208;42.688;23.404;2022-07-03T03:00:33;95877.41;;;21.79;100.00
18167;BME280;9208;42.688;23.404;2022-07-03T03:03:00;95877.63;;;21.81;100.00
18167;BME280;9208;42.688;23.404;2022-07-03T03:08:03;95882.22;;;21.92;100.00
18167;BME280;9208;42.688;23.404;2022-07-03T03:10:34;95881.28;;;21.89;100.00
18167;BME280;9208;42.688;23.404;2022-07-03T03:13:14;95885.44;;;21.96;100.00
18167;BME280;9208;42.688;23.404;2022-07-03T03:18:29;95882.22;;;21.92;100.00
18167;BME280;9208;42.688;23.404;2022-07-03T03:20:59;95891.75;;;21.96;100.00
18167;BME280;9208;42.688;23.404;2022-07-03T03:23:46;95896.59;;;21.96;100.00
18167;BME280;9208;42.688;23.404;2022-07-03T03:26:24;95895.72;;;22.01;100.00
18167;BME280;9208;42.688;23.404;2022-07-03T03:28:51;95898.28;;;21.99;100.00
18167;BME280;9208;42.688;23.404;2022-07-03T03:31:17;95889.84;;;21.91;100.00
18167;BME280;9208;42.688;23.404;2022-07-03T03:33:46;95892.03;;;21.85;100.00
18167;BME280;9208;42.688;23.404;2022-07-03T03:36:14;95891.78;;;21.83;100.00
18167;BME280;9208;42.688;23.404;2022-07-03T03:38:41;95887.50;;;21.82;100.00
18167;BME280;9208;42.688;23.404;2022-07-03T03:41:07;95895.88;;;21.82;100.00
18167;BME280;9208;42.688;23.404;2022-07-03T03:43:33;95901.03;;;21.78;100.00
18167;BME280;9208;42.688;23.404;2022-07-03T03:45:59;95892.44;;;21.89;100.00
18167;BME280;9208;42.688;23.404;2022-07-03T03:48:30;95899.41;;;21.96;100.00
18167;BME280;9208;42.688;23.404;2022-07-03T03:50:56;95893.41;;;21.92;100.00
18167;BME280;9208;42.688;23.404;2022-07-03T03:53:24;95898.97;;;21.92;100.00
18167;BME280;9208;42.688;23.404;2022-07-03T03:56:08;95905.59;;;22.02;100.00
18167;BME280;9208;42.688;23.404;2022-07-03T03:58:36;95898.28;;;21.99;100.00
18167;BME280;9208;42.688;23.404;2022-07-03T04:01:03;95895.31;;;21.97;100.00
18167;BME280;9208;42.688;23.404;2022-07-03T04:03:30;95888.50;;;22.05;100.00
18167;BME280;9208;42.688;23.404;2022-07-03T04:05:56;95892.25;;;22.08;100.00
18167;BME280;9208;42.688;23.404;2022-07-03T04:08:23;95899.53;;;22.11;100.00
18167;BME280;9208;42.688;23.404;2022-07-03T04:10:49;95900.31;;;22.11;100.00
18167;BME280;9208;42.688;23.404;2022-07-03T04:13:15;95904.47;;;22.18;100.00
18167;BME280;9208;42.688;23.404;2022-07-03T04:15:41;95906.56;;;22.25;100.00
18167;BME280;9208;42.688;23.404;2022-07-03T04:18:07;95905.69;;;22.30;100.00
18167;BME280;9208;42.688;23.404;2022-07-03T04:20:33;95898.31;;;22.40;100.00
18167;BME280;9208;42.688;23.404;2022-07-03T04:22:59;95894.66;;;22.45;100.00
18167;BME280;9208;42.688;23.404;2022-07-03T04:25:25;95895.09;;;22.49;100.00
18167;BME280;9208;42.688;23.404;2022-07-03T04:27:51;95888.63;;;22.54;100.00
18167;BME280;9208;42.688;23.404;2022-07-03T04:30:16;95887.94;;;22.61;100.00
18167;BME280;9208;42.688;23.404;2022-07-03T04:32:42;95889.59;;;22.56;100.00
18167;BME280;9208;42.688;23.404;2022-07-03T04:35:08;95893.53;;;22.61;100.00
18167;BME280;9208;42.688;23.404;2022-07-03T04:37:34;95894.69;;;22.65;100.00
18167;BME280;9208;42.688;23.404;2022-07-03T04:39:59;95893.09;;;22.77;100.00
18167;BME280;9208;42.688;23.404;2022-07-03T04:42:25;95889.88;;;22.73;100.00
18167;BME280;9208;42.688;23.404;2022-07-03T04:44:50;95891.41;;;22.74;100.00
18167;BME280;9208;42.688;23.404;2022-07-03T04:47:18;95898.69;;;22.77;100.00
18167;BME280;9208;42.688;23.404;2022-07-03T04:49:44;95896.09;;;22.79;100.00
18167;BME280;9208;42.688;23.404;2022-07-03T04:52:10;95901.75;;;22.87;100.00
18167;BME280;9208;42.688;23.404;2022-07-03T04:54:36;95902.28;;;22.85;100.00
18167;BME280;9208;42.688;23.404;2022-07-03T04:57:02;95898.59;;;22.90;100.00
18167;BME280;9208;42.688;23.404;2022-07-03T04:59:28;95908.28;;;22.89;100.00
18167;BME280;9208;42.688;23.404;2022-07-03T05:04:19;95891.28;;;22.87;100.00
18167;BME280;9208;42.688;23.404;2022-07-03T05:06:45;95893.00;;;22.90;100.00
18167;BME280;9208;42.688;23.404;2022-07-03T05:09:11;95889.13;;;22.93;100.00
18167;BME280;9208;42.688;23.404;2022-07-03T05:11:37;95888.91;;;22.91;100.00
18167;BME280;9208;42.688;23.404;2022-07-03T05:14:04;95893.81;;;22.98;100.00
18167;BME280;9208;42.688;23.404;2022-07-03T05:16:30;95883.22;;;23.04;100.00
18167;BME280;9208;42.688;23.404;2022-07-03T05:18:56;95889.03;;;23.06;100.00
18167;BME280;9208;42.688;23.404;2022-07-03T05:21:21;95884.78;;;23.13;100.00
18167;BME280;9208;42.688;23.404;2022-07-03T05:23:47;95881.97;;;23.13;100.00
18167;BME280;9208;42.688;23.404;2022-07-03T05:26:12;95881.56;;;23.09;100.00
18167;BME280;9208;42.688;23.404;2022-07-03T05:28:38;95881.22;;;22.84;100.00
18167;BME280;9208;42.688;23.404;2022-07-03T05:31:03;95892.09;;;22.95;100.00
18167;BME280;9208;42.688;23.404;2022-07-03T05:33:29;95891.59;;;23.04;100.00
18167;BME280;9208;42.688;23.404;2022-07-03T05:35:55;95899.31;;;23.11;100.00
18167;BME280;9208;42.688;23.404;2022-07-03T05:38:21;95904.00;;;23.16;100.00
18167;BME280;9208;42.688;23.404;2022-07-03T05:41:05;95899.81;;;23.30;100.00
18167;BME280;9208;42.688;23.404;2022-07-03T05:43:30;95904.50;;;23.35;100.00
18167;BME280;9208;42.688;23.404;2022-07-03T05:45:55;95900.25;;;23.42;100.00
18167;BME280;9208;42.688;23.404;2022-07-03T05:48:21;95903.44;;;23.46;100.00
18167;BME280;9208;42.688;23.404;2022-07-03T05:50:46;95899.38;;;23.54;100.00
18167;BME280;9208;42.688;23.404;2022-07-03T05:53:12;95903.28;;;23.51;100.00
18167;BME280;9208;42.688;23.404;2022-07-03T05:55:37;95899.06;;;23.65;100.00
18167;BME280;9208;42.688;23.404;2022-07-03T05:58:02;95900.97;;;23.78;100.00
18167;BME280;9208;42.688;23.404;2022-07-03T06:00:28;95905.84;;;23.85;100.00
18167;BME280;9208;42.688;23.404;2022-07-03T06:02:54;95901.38;;;23.89;100.00
18167;BME280;9208;42.688;23.404;2022-07-03T06:05:19;95900.50;;;23.94;100.00
18167;BME280;9208;42.688;23.404;2022-07-03T06:07:45;95901.66;;;24.14;100.00
18167;BME280;9208;42.688;23.404;2022-07-03T06:10:10;95903.34;;;24.09;100.00
18167;BME280;9208;42.688;23.404;2022-07-03T06:12:36;95906.53;;;24.13;100.00
18167;BME280;9208;42.688;23.404;2022-07-03T06:15:01;95907.09;;;24.19;100.00
18167;BME280;9208;42.688;23.404;2022-07-03T06:17:26;95903.19;;;24.22;100.00
18167;BME280;9208;42.688;23.404;2022-07-03T06:19:52;95910.84;;;24.22;100.00
18167;BME280;9208;42.688;23.404;2022-07-03T06:22:17;95901.50;;;24.27;100.00
18167;BME280;9208;42.688;23.404;2022-07-03T06:24:43;95906.00;;;24.30;100.00
18167;BME280;9208;42.688;23.404;2022-07-03T06:27:08;95902.84;;;24.33;100.00
18167;BME280;9208;42.688;23.404;2022-07-03T06:29:34;95904.88;;;24.33;100.00
18167;BME280;9208;42.688;23.404;2022-07-03T06:31:59;95899.66;;;24.37;100.00
18167;BME280;9208;42.688;23.404;2022-07-03T06:34:25;95897.63;;;24.45;100.00
18167;BME280;9208;42.688;23.404;2022-07-03T06:36:51;95905.47;;;24.46;100.00
18167;BME280;9208;42.688;23.404;2022-07-03T06:39:16;95904.19;;;24.62;100.00
18167;BME280;9208;42.688;23.404;2022-07-03T06:41:41;95904.75;;;24.68;100.00
18167;BME280;9208;42.688;23.404;2022-07-03T06:44:07;95901.59;;;24.64;100.00
18167;BME280;9208;42.688;23.404;2022-07-03T06:46:32;95911.69;;;24.67;100.00
18167;BME280;9208;42.688;23.404;2022-07-03T06:48:58;95898.41;;;24.60;100.00
18167;BME280;9208;42.688;23.404;2022-07-03T06:51:23;95893.72;;;24.70;99.50
18167;BME280;9208;42.688;23.404;2022-07-03T06:53:49;95892.22;;;24.84;98.46
18167;BME280;9208;42.688;23.404;2022-07-03T06:56:14;95896.16;;;24.89;98.41
18167;BME280;9208;42.688;23.404;2022-07-03T06:58:40;95897.47;;;24.95;98.38
18167;BME280;9208;42.688;23.404;2022-07-03T07:01:05;95895.97;;;25.02;97.02
18167;BME280;9208;42.688;23.404;2022-07-03T07:03:30;95890.16;;;25.00;97.48
18167;BME280;9208;42.688;23.404;2022-07-03T07:05:56;95884.91;;;25.11;97.01
18167;BME280;9208;42.688;23.404;2022-07-03T07:08:21;95885.84;;;25.21;96.30
18167;BME280;9208;42.688;23.404;2022-07-03T07:10:47;95888.25;;;25.32;95.18
18167;BME280;9208;42.688;23.404;2022-07-03T07:13:12;95889.16;;;25.42;94.20
18167;BME280;9208;42.688;23.404;2022-07-03T07:15:38;95888.41;;;25.49;92.58
18167;BME280;9208;42.688;23.404;2022-07-03T07:18:03;95885.75;;;25.51;91.24
18167;BME280;9208;42.688;23.404;2022-07-03T07:20:29;95883.69;;;25.59;90.30
18167;BME280;9208;42.688;23.404;2022-07-03T07:22:54;95882.59;;;25.55;89.62
18167;BME280;9208;42.688;23.404;2022-07-03T07:25:20;95876.56;;;25.66;89.19
18167;BME280;9208;42.688;23.404;2022-07-03T07:27:45;95876.09;;;25.85;88.02
18167;BME280;9208;42.688;23.404;2022-07-03T07:30:11;95875.44;;;26.09;85.61
18167;BME280;9208;42.688;23.404;2022-07-03T07:32:37;95874.78;;;26.25;84.68
18167;BME280;9208;42.688;23.404;2022-07-03T07:35:03;95876.91;;;26.42;81.95
18167;BME280;9208;42.688;23.404;2022-07-03T07:37:28;95882.31;;;26.47;80.99
18167;BME280;9208;42.688;23.404;2022-07-03T07:39:53;95882.25;;;26.55;81.00
18167;BME280;9208;42.688;23.404;2022-07-03T07:42:19;95884.47;;;26.64;80.19
18167;BME280;9208;42.688;23.404;2022-07-03T07:44:44;95876.22;;;26.66;78.58
18167;BME280;9208;42.688;23.404;2022-07-03T07:47:10;95877.91;;;26.61;77.50
18167;BME280;9208;42.688;23.404;2022-07-03T07:49:35;95877.84;;;26.69;78.34
18167;BME280;9208;42.688;23.404;2022-07-03T07:52:01;95879.06;;;26.58;78.31
18167;BME280;9208;42.688;23.404;2022-07-03T07:54:26;95867.94;;;26.68;77.99
18167;BME280;9208;42.688;23.404;2022-07-03T07:56:52;95879.03;;;26.83;77.61
18167;BME280;9208;42.688;23.404;2022-07-03T07:59:17;95870.50;;;26.98;76.96
18167;BME280;9208;42.688;23.404;2022-07-03T08:01:42;95864.94;;;27.07;75.91
18167;BME280;9208;42.688;23.404;2022-07-03T08:04:27;95860.41;;;27.12;76.08
18167;BME280;9208;42.688;23.404;2022-07-03T08:07:11;95855.13;;;27.16;76.54
18167;BME280;9208;42.688;23.404;2022-07-03T08:09:39;95854.16;;;27.21;76.78
18167;BME280;9208;42.688;23.404;2022-07-03T08:12:05;95860.56;;;27.14;76.37
18167;BME280;9208;42.688;23.404;2022-07-03T08:14:30;95846.91;;;27.10;74.73
18167;BME280;9208;42.688;23.404;2022-07-03T08:16:56;95842.41;;;27.07;76.02
18167;BME280;9208;42.688;23.404;2022-07-03T08:19:21;95846.22;;;27.02;77.13
18167;BME280;9208;42.688;23.404;2022-07-03T08:21:46;95849.16;;;27.12;76.70
18167;BME280;9208;42.688;23.404;2022-07-03T08:24:12;95845.91;;;27.15;76.81
18167;BME280;9208;42.688;23.404;2022-07-03T08:26:38;95853.22;;;27.18;78.19
18167;BME280;9208;42.688;23.404;2022-07-03T08:29:03;95850.41;;;27.18;76.09
18167;BME280;9208;42.688;23.404;2022-07-03T08:31:32;95858.34;;;27.12;75.75
18167;BME280;9208;42.688;23.404;2022-07-03T08:33:57;95857.63;;;27.29;74.94
18167;BME280;9208;42.688;23.404;2022-07-03T08:36:23;95859.94;;;27.40;73.96
18167;BME280;9208;42.688;23.404;2022-07-03T08:38:51;95863.75;;;27.52;70.37
18167;BME280;9208;42.688;23.404;2022-07-03T08:41:18;95845.38;;;27.51;70.18
18167;BME280;9208;42.688;23.404;2022-07-03T08:43:46;95857.47;;;27.61;71.20
18167;BME280;9208;42.688;23.404;2022-07-03T08:46:14;95849.81;;;27.88;69.63
18167;BME280;9208;42.688;23.404;2022-07-03T08:48:40;95857.38;;;28.12;67.86
18167;BME280;9208;42.688;23.404;2022-07-03T08:51:06;95852.53;;;28.22;66.50
18167;BME280;9208;42.688;23.404;2022-07-03T08:53:31;95845.28;;;28.28;66.45
18167;BME280;9208;42.688;23.404;2022-07-03T08:55:57;95860.47;;;28.33;65.49
18167;BME280;9208;42.688;23.404;2022-07-03T08:58:23;95858.44;;;28.43;64.30
18167;BME280;9208;42.688;23.404;2022-07-03T09:00:49;95851.66;;;28.46;64.41
18167;BME280;9208;42.688;23.404;2022-07-03T09:03:15;95852.28;;;28.54;63.73
18167;BME280;9208;42.688;23.404;2022-07-03T09:05:41;95851.41;;;28.61;62.67
18167;BME280;9208;42.688;23.404;2022-07-03T09:08:07;95859.72;;;28.59;60.48
18167;BME280;9208;42.688;23.404;2022-07-03T09:10:33;95855.44;;;28.67;60.63
18167;BME280;9208;42.688;23.404;2022-07-03T09:12:59;95848.63;;;28.70;60.48
18167;BME280;9208;42.688;23.404;2022-07-03T09:15:25;95836.88;;;28.74;61.37
18167;BME280;9208;42.688;23.404;2022-07-03T09:18:00;95835.13;;;28.88;61.89
18167;BME280;9208;42.688;23.404;2022-07-03T09:20:40;95846.75;;;28.92;59.42
18167;BME280;9208;42.688;23.404;2022-07-03T09:23:20;95853.41;;;28.96;57.86
18167;BME280;9208;42.688;23.404;2022-07-03T09:28:22;95837.56;;;29.01;58.01
18167;BME280;9208;42.688;23.404;2022-07-03T09:30:58;95833.28;;;29.09;58.63
18167;BME280;9208;42.688;23.404;2022-07-03T09:33:25;95840.44;;;29.10;56.88
18167;BME280;9208;42.688;23.404;2022-07-03T09:35:54;95845.63;;;29.14;56.90
18167;BME280;9208;42.688;23.404;2022-07-03T09:38:21;95837.47;;;29.18;56.62
18167;BME280;9208;42.688;23.404;2022-07-03T09:40:52;95826.59;;;29.24;57.43
18167;BME280;9208;42.688;23.404;2022-07-03T09:43:30;95829.88;;;29.30;57.08
18167;BME280;9208;42.688;23.404;2022-07-03T09:45:57;95823.81;;;29.33;57.59
18167;BME280;9208;42.688;23.404;2022-07-03T09:48:25;95828.56;;;29.31;57.42
18167;BME280;9208;42.688;23.404;2022-07-03T09:51:27;95824.69;;;29.36;56.85
18167;BME280;9208;42.688;23.404;2022-07-03T09:54:01;95832.56;;;29.37;56.48
18167;BME280;9208;42.688;23.404;2022-07-03T10:01:28;95812.19;;;29.48;57.09
18167;BME280;9208;42.688;23.404;2022-07-03T10:03:54;95837.94;;;29.81;54.16
18167;BME280;9208;42.688;23.404;2022-07-03T10:06:20;95846.69;;;29.94;52.71
18167;BME280;9208;42.688;23.404;2022-07-03T10:08:46;95856.22;;;29.99;51.18
18167;BME280;9208;42.688;23.404;2022-07-03T10:11:12;95847.25;;;30.02;51.78
18167;BME280;9208;42.688;23.404;2022-07-03T10:13:39;95829.84;;;30.06;52.88
18167;BME280;9208;42.688;23.404;2022-07-03T10:16:06;95828.34;;;30.05;53.12
18167;BME280;9208;42.688;23.404;2022-07-03T10:18:36;95814.63;;;30.11;53.72
18167;BME280;9208;42.688;23.404;2022-07-03T10:21:06;95851.06;;;30.35;49.04
18167;BME280;9208;42.688;23.404;2022-07-03T10:23:32;95874.09;;;30.51;47.21
18167;BME280;9208;42.688;23.404;2022-07-03T10:25:58;95896.91;;;30.53;45.77
18167;BME280;9208;42.688;23.404;2022-07-03T10:28:24;95891.38;;;30.55;46.05
18167;BME280;9208;42.688;23.404;2022-07-03T10:30:50;95863.81;;;30.55;47.21
18167;BME280;9208;42.688;23.404;2022-07-03T10:33:16;95857.69;;;30.59;47.94
18167;BME280;9208;42.688;23.404;2022-07-03T10:35:44;95840.41;;;30.55;48.55
18167;BME280;9208;42.688;23.404;2022-07-03T10:38:39;95840.31;;;30.43;48.68
18167;BME280;9208;42.688;23.404;2022-07-03T10:43:59;95831.88;;;30.34;49.10
18167;BME280;9208;42.688;23.404;2022-07-03T10:46:43;95820.16;;;30.18;48.97
18167;BME280;9208;42.688;23.404;2022-07-03T10:49:12;95825.38;;;30.22;48.30
18167;BME280;9208;42.688;23.404;2022-07-03T10:51:52;95839.03;;;30.25;47.29
18167;BME280;9208;42.688;23.404;2022-07-03T10:54:26;95844.41;;;30.31;46.74
18167;BME280;9208;42.688;23.404;2022-07-03T11:02:26;95858.97;;;30.37;43.93
18167;BME280;9208;42.688;23.404;2022-07-03T11:13:07;95902.06;;;31.06;39.90
18167;BME280;9208;42.688;23.404;2022-07-03T11:26:19;95849.63;;;31.26;41.68
18167;BME280;9208;42.688;23.404;2022-07-03T11:36:09;95842.44;;;31.67;41.57
18167;BME280;9208;42.688;23.404;2022-07-03T11:38:36;95852.38;;;31.77;40.70
18167;BME280;9208;42.688;23.404;2022-07-03T11:41:06;95841.03;;;31.77;41.06
18167;BME280;9208;42.688;23.404;2022-07-03T11:43:32;95860.59;;;31.94;40.11
18167;BME280;9208;42.688;23.404;2022-07-03T11:45:59;95867.25;;;31.99;39.30
18167;BME280;9208;42.688;23.404;2022-07-03T11:48:26;95877.13;;;31.98;38.88
18167;BME280;9208;42.688;23.404;2022-07-03T11:50:52;95891.78;;;31.94;37.61
18167;BME280;9208;42.688;23.404;2022-07-03T11:58:20;95849.53;;;32.10;39.49
18167;BME280;9208;42.688;23.404;2022-07-03T12:00:46;95844.13;;;32.14;39.85
18167;BME280;9208;42.688;23.404;2022-07-03T12:03:21;95849.81;;;32.26;39.68
18167;BME280;9208;42.688;23.404;2022-07-03T12:05:56;95841.78;;;32.22;40.12
18167;BME280;9208;42.688;23.404;2022-07-03T12:08:24;95830.66;;;32.14;40.13
18167;BME280;9208;42.688;23.404;2022-07-03T12:10:49;95826.69;;;32.08;39.81
18167;BME280;9208;42.688;23.404;2022-07-03T12:13:22;95818.72;;;32.16;40.38
18167;BME280;9208;42.688;23.404;2022-07-03T12:15:49;95819.47;;;32.17;39.99
18167;BME280;9208;42.688;23.404;2022-07-03T12:18:15;95824.53;;;32.18;40.31
18167;BME280;9208;42.688;23.404;2022-07-03T12:20:41;95816.06;;;32.41;39.92
18167;BME280;9208;42.688;23.404;2022-07-03T12:23:06;95817.81;;;32.46;39.84
18167;BME280;9208;42.688;23.404;2022-07-03T12:25:38;95823.22;;;32.54;39.87
18167;BME280;9208;42.688;23.404;2022-07-03T12:28:05;95817.91;;;32.60;39.84
18167;BME280;9208;42.688;23.404;2022-07-03T12:30:37;95821.50;;;32.60;39.24
18167;BME280;9208;42.688;23.404;2022-07-03T12:33:04;95816.31;;;32.57;39.33
18167;BME280;9208;42.688;23.404;2022-07-03T12:35:29;95828.28;;;32.44;38.00
18167;BME280;9208;42.688;23.404;2022-07-03T12:37:55;95832.22;;;32.39;38.28
18167;BME280;9208;42.688;23.404;2022-07-03T12:40:21;95822.34;;;32.40;38.11
18167;BME280;9208;42.688;23.404;2022-07-03T12:42:56;95826.94;;;32.45;38.28
18167;BME280;9208;42.688;23.404;2022-07-03T12:45:27;95823.09;;;32.40;38.71
18167;BME280;9208;42.688;23.404;2022-07-03T12:48:01;95836.56;;;32.51;38.01
18167;BME280;9208;42.688;23.404;2022-07-03T12:50:46;95833.72;;;32.63;38.03
18167;BME280;9208;42.688;23.404;2022-07-03T12:53:26;95836.81;;;32.78;37.13
18167;BME280;9208;42.688;23.404;2022-07-03T12:55:51;95847.94;;;32.86;36.78
18167;BME280;9208;42.688;23.404;2022-07-03T12:58:22;95847.69;;;32.93;37.01
18167;BME280;9208;42.688;23.404;2022-07-03T13:01:26;95842.50;;;33.01;36.89
18167;BME280;9208;42.688;23.404;2022-07-03T13:03:52;95839.31;;;32.95;37.29
18167;BME280;9208;42.688;23.404;2022-07-03T13:06:20;95777.81;;;32.88;42.35
18167;BME280;9208;42.688;23.404;2022-07-03T13:11:32;95694.38;;;32.59;48.24
18167;BME280;9208;42.688;23.404;2022-07-03T13:14:09;95664.28;;;32.19;49.87
18167;BME280;9208;42.688;23.404;2022-07-03T13:16:49;95649.59;;;31.88;50.75
18167;BME280;9208;42.688;23.404;2022-07-03T13:19:19;95663.53;;;31.95;48.64
18167;BME280;9208;42.688;23.404;2022-07-03T13:21:45;95676.97;;;31.95;48.65
18167;BME280;9208;42.688;23.404;2022-07-03T13:24:12;95669.34;;;32.09;48.44
18167;BME280;9208;42.688;23.404;2022-07-03T13:26:38;95670.94;;;32.12;48.56
18167;BME280;9208;42.688;23.404;2022-07-03T13:29:04;95667.13;;;32.19;48.26
18167;BME280;9208;42.688;23.404;2022-07-03T13:31:30;95677.22;;;32.22;47.93
18167;BME280;9208;42.688;23.404;2022-07-03T13:33:56;95668.50;;;32.07;48.10
18167;BME280;9208;42.688;23.404;2022-07-03T13:36:26;95664.03;;;31.92;48.45
18167;BME280;9208;42.688;23.404;2022-07-03T13:38:52;95662.56;;;31.91;48.86
18167;BME280;9208;42.688;23.404;2022-07-03T13:41:18;95671.06;;;31.91;48.25
18167;BME280;9208;42.688;23.404;2022-07-03T13:43:46;95674.38;;;31.99;47.75
18167;BME280;9208;42.688;23.404;2022-07-03T13:46:12;95664.91;;;31.94;48.06
18167;BME280;9208;42.688;23.404;2022-07-03T13:48:37;95666.88;;;32.03;47.96
18167;BME280;9208;42.688;23.404;2022-07-03T13:51:03;95664.53;;;32.00;47.87
18167;BME280;9208;42.688;23.404;2022-07-03T13:53:31;95666.72;;;31.90;47.42
18167;BME280;9208;42.688;23.404;2022-07-03T13:55:57;95664.03;;;31.92;47.43
18167;BME280;9208;42.688;23.404;2022-07-03T13:58:24;95646.16;;;32.01;47.61
18167;BME280;9208;42.688;23.404;2022-07-03T14:00:49;95644.28;;;31.82;48.30
18167;BME280;9208;42.688;23.404;2022-07-03T14:03:15;95647.75;;;31.81;48.00
18167;BME280;9208;42.688;23.404;2022-07-03T14:05:40;95638.50;;;31.80;48.77
18167;BME280;9208;42.688;23.404;2022-07-03T14:08:06;95636.16;;;31.77;48.49
18167;BME280;9208;42.688;23.404;2022-07-03T14:10:31;95636.91;;;31.77;47.92
18167;BME280;9208;42.688;23.404;2022-07-03T14:12:57;95644.03;;;31.78;47.22
18167;BME280;9208;42.688;23.404;2022-07-03T14:15:22;95639.56;;;31.64;47.07
18167;BME280;9208;42.688;23.404;2022-07-03T14:17:47;95647.75;;;31.81;46.77
18167;BME280;9208;42.688;23.404;2022-07-03T14:20:13;95657.63;;;31.91;46.33
18167;BME280;9208;42.688;23.404;2022-07-03T14:22:39;95664.66;;;32.02;46.20
18167;BME280;9208;42.688;23.404;2022-07-03T14:25:05;95676.59;;;32.00;45.13